createdAt,value
2023-05-10T00:00:26.750Z,99.90
2023-05-10T00:02:53.868Z,99.90
2023-05-10T00:05:20.861Z,99.90
2023-05-10T00:07:47.691Z,99.90
2023-05-10T00:10:14.696Z,99.90
2023-05-10T00:12:43.160Z,99.90
2023-05-10T00:15:10.515Z,99.90
2023-05-10T00:17:37.484Z,99.90
2023-05-10T00:20:05.891Z,99.90
2023-05-10T00:22:33.625Z,99.90
2023-05-10T00:25:01.022Z,99.90
2023-05-10T00:27:27.814Z,99.90
2023-05-10T00:29:54.623Z,99.90
2023-05-10T00:32:21.713Z,99.90
2023-05-10T00:34:49.284Z,99.90
2023-05-10T00:37:16.106Z,99.90
2023-05-10T00:39:42.905Z,99.90
2023-05-10T00:42:09.727Z,99.90
2023-05-10T00:44:36.622Z,99.90
2023-05-10T00:47:03.496Z,99.90
2023-05-10T00:49:30.793Z,99.90
2023-05-10T00:51:58.039Z,99.90
2023-05-10T00:54:25.117Z,99.90
2023-05-10T00:56:53.349Z,99.90
2023-05-10T00:59:20.936Z,99.90
2023-05-10T01:01:48.315Z,99.90
2023-05-10T01:04:16.360Z,99.90
2023-05-10T01:06:44.014Z,99.90
2023-05-10T01:09:12.586Z,99.90
2023-05-10T01:11:40.851Z,99.90
2023-05-10T01:14:08.103Z,99.90
2023-05-10T01:16:39.719Z,99.90
2023-05-10T01:19:29.056Z,99.90
2023-05-10T01:22:19.380Z,99.90
2023-05-10T01:25:27.452Z,99.90
2023-05-10T01:28:30.772Z,99.90
2023-05-10T01:31:19.258Z,99.90
2023-05-10T01:34:10.239Z,99.90
2023-05-10T01:36:52.052Z,99.90
2023-05-10T01:39:42.676Z,99.90
2023-05-10T01:42:14.926Z,99.90
2023-05-10T01:44:59.261Z,99.90
2023-05-10T01:47:51.358Z,99.90
2023-05-10T01:50:25.485Z,99.90
2023-05-10T01:52:57.790Z,99.90
2023-05-10T01:55:29.489Z,99.90
2023-05-10T01:58:09.752Z,99.90
2023-05-10T02:00:38.313Z,99.90
2023-05-10T02:03:09.752Z,99.90
2023-05-10T02:05:37.657Z,99.90
2023-05-10T02:08:07.946Z,99.90
2023-05-10T02:10:37.019Z,99.90
2023-05-10T02:13:07.524Z,99.90
2023-05-10T02:15:35.660Z,99.90
2023-05-10T02:18:05.196Z,99.90
2023-05-10T02:20:33.461Z,99.90
2023-05-10T02:23:02.828Z,99.90
2023-05-10T02:25:31.284Z,99.90
2023-05-10T02:28:01.044Z,99.90
2023-05-10T02:30:28.649Z,99.90
2023-05-10T02:32:57.284Z,99.90
2023-05-10T02:35:24.868Z,99.90
2023-05-10T02:37:52.236Z,99.90
2023-05-10T02:40:20.770Z,99.90
2023-05-10T02:42:49.915Z,99.90
2023-05-10T02:45:22.178Z,99.90
2023-05-10T02:47:49.646Z,99.90
2023-05-10T02:50:17.031Z,99.90
2023-05-10T02:52:49.132Z,99.90
2023-05-10T02:55:17.870Z,99.90
2023-05-10T02:57:57.504Z,99.90
2023-05-10T03:00:26.062Z,99.90
2023-05-10T03:02:53.446Z,99.90
2023-05-10T03:05:20.838Z,99.90
2023-05-10T03:07:48.363Z,99.90
2023-05-10T03:10:15.446Z,99.90
2023-05-10T03:13:29.964Z,99.90
2023-05-10T03:16:13.938Z,99.90
2023-05-10T03:18:55.616Z,99.90
2023-05-10T03:21:26.885Z,99.90
2023-05-10T03:24:27.053Z,99.90
2023-05-10T03:26:57.810Z,99.90
2023-05-10T03:29:28.676Z,99.90
2023-05-10T03:31:55.824Z,99.90
2023-05-10T03:34:26.223Z,99.90
2023-05-10T03:36:53.334Z,99.90
2023-05-10T03:39:21.274Z,99.90
2023-05-10T03:41:48.267Z,99.90
2023-05-10T03:44:15.121Z,99.90
2023-05-10T03:46:41.984Z,99.90
2023-05-10T03:49:08.911Z,99.90
2023-05-10T03:51:36.205Z,99.90
2023-05-10T03:54:03.036Z,99.90
2023-05-10T03:56:29.865Z,99.90
2023-05-10T03:58:56.662Z,99.90
2023-05-10T04:01:23.551Z,99.90
2023-05-10T04:03:50.411Z,99.90
2023-05-10T04:06:17.353Z,99.90
2023-05-10T04:08:44.166Z,99.90
2023-05-10T04:11:12.648Z,99.90
2023-05-10T04:13:39.657Z,99.90
2023-05-10T04:16:06.938Z,99.90
2023-05-10T04:18:33.822Z,99.90
2023-05-10T04:21:00.734Z,99.90
2023-05-10T04:23:28.688Z,99.90
2023-05-10T04:26:02.007Z,99.90
2023-05-10T04:28:28.918Z,99.90
2023-05-10T04:31:11.703Z,99.90
2023-05-10T04:33:38.673Z,99.90
2023-05-10T04:36:06.652Z,99.90
2023-05-10T04:38:33.515Z,99.90
2023-05-10T04:41:11.783Z,99.90
2023-05-10T04:43:39.437Z,99.90
2023-05-10T04:46:08.407Z,99.90
2023-05-10T04:48:35.512Z,99.90
2023-05-10T04:51:02.430Z,99.90
2023-05-10T04:53:29.272Z,99.90
2023-05-10T04:55:56.140Z,99.90
2023-05-10T04:58:23.117Z,99.90
2023-05-10T05:00:49.964Z,99.90
2023-05-10T05:03:17.497Z,99.90
2023-05-10T05:05:45.808Z,99.90
2023-05-10T05:08:12.696Z,99.90
2023-05-10T05:10:39.486Z,99.90
2023-05-10T05:13:06.607Z,99.90
2023-05-10T05:15:33.866Z,99.90
2023-05-10T05:18:00.718Z,99.90
2023-05-10T05:20:27.648Z,99.90
2023-05-10T05:22:54.908Z,99.90
2023-05-10T05:25:21.857Z,99.90
2023-05-10T05:27:48.666Z,99.90
2023-05-10T05:30:15.803Z,99.90
2023-05-10T05:32:42.846Z,99.90
2023-05-10T05:35:09.967Z,99.90
2023-05-10T05:37:36.855Z,99.90
2023-05-10T05:40:04.337Z,99.90
2023-05-10T05:42:32.675Z,99.90
2023-05-10T05:44:59.953Z,99.90
2023-05-10T05:47:26.914Z,99.90
2023-05-10T05:49:53.743Z,99.90
2023-05-10T05:52:20.613Z,99.90
2023-05-10T05:54:47.596Z,99.90
2023-05-10T05:57:14.363Z,99.90
2023-05-10T05:59:44.751Z,99.90
2023-05-10T06:02:12.224Z,99.90
2023-05-10T06:04:39.301Z,99.90
2023-05-10T06:07:06.753Z,99.90
2023-05-10T06:09:33.599Z,99.90
2023-05-10T06:12:00.431Z,99.90
2023-05-10T06:14:27.293Z,99.90
2023-05-10T06:16:54.206Z,99.90
2023-05-10T06:19:21.073Z,99.90
2023-05-10T06:21:47.899Z,99.90
2023-05-10T06:24:14.776Z,99.90
2023-05-10T06:26:41.572Z,99.90
2023-05-10T06:29:08.408Z,99.90
2023-05-10T06:31:35.319Z,99.90
2023-05-10T06:34:02.142Z,99.90
2023-05-10T06:36:28.979Z,99.90
2023-05-10T06:38:55.869Z,99.90
2023-05-10T06:41:24.745Z,99.90
2023-05-10T06:43:51.773Z,99.90
2023-05-10T06:46:18.741Z,99.90
2023-05-10T06:48:45.868Z,99.90
2023-05-10T06:51:12.776Z,99.90
2023-05-10T06:53:39.616Z,99.90
2023-05-10T06:56:06.571Z,99.90
2023-05-10T06:58:33.898Z,99.90
2023-05-10T07:01:06.064Z,99.90
2023-05-10T07:03:33.391Z,99.90
2023-05-10T07:06:04.757Z,99.90
2023-05-10T07:08:35.671Z,99.90
2023-05-10T07:11:09.782Z,99.90
2023-05-10T07:13:37.421Z,99.90
2023-05-10T07:16:05.302Z,99.90
2023-05-10T07:18:32.300Z,99.90
2023-05-10T07:20:59.420Z,99.90
2023-05-10T07:23:26.376Z,99.90
2023-05-10T07:25:53.244Z,99.90
2023-05-10T07:28:20.745Z,99.90
2023-05-10T07:30:47.955Z,99.90
2023-05-10T07:33:16.070Z,99.90
2023-05-10T07:35:43.981Z,99.90
2023-05-10T07:38:12.082Z,99.90
2023-05-10T07:40:40.782Z,99.90
2023-05-10T07:43:07.634Z,99.90
2023-05-10T07:45:35.107Z,99.90
2023-05-10T07:48:02.416Z,99.90
2023-05-10T07:50:29.417Z,99.90
2023-05-10T07:52:56.242Z,99.90
2023-05-10T07:55:23.183Z,99.90
2023-05-10T07:57:50.073Z,99.90
2023-05-10T08:00:21.270Z,99.90
2023-05-10T08:02:49.016Z,99.90
2023-05-10T08:05:16.473Z,99.90
2023-05-10T08:07:43.670Z,99.90
2023-05-10T08:10:12.273Z,99.90
2023-05-10T08:12:39.714Z,99.90
2023-05-10T08:15:08.051Z,99.90
2023-05-10T08:17:35.136Z,99.90
2023-05-10T08:20:02.497Z,99.90
2023-05-10T08:22:29.325Z,99.90
2023-05-10T08:24:56.884Z,99.90
2023-05-10T08:27:23.779Z,99.90
2023-05-10T08:29:50.840Z,99.90
2023-05-10T08:32:18.783Z,99.90
2023-05-10T08:34:46.873Z,99.90
2023-05-10T08:37:14.468Z,99.90
2023-05-10T08:39:41.863Z,99.90
2023-05-10T08:42:10.167Z,99.90
2023-05-10T08:44:38.345Z,99.90
2023-05-10T08:47:10.063Z,99.90
2023-05-10T08:49:38.744Z,99.90
2023-05-10T08:52:08.356Z,99.90
2023-05-10T08:54:35.539Z,99.90
2023-05-10T08:57:02.731Z,99.90
2023-05-10T08:59:29.903Z,99.90
2023-05-10T09:02:00.727Z,99.90
2023-05-10T09:04:29.218Z,99.90
2023-05-10T09:06:56.619Z,99.90
2023-05-10T09:09:26.260Z,99.90
2023-05-10T09:11:54.328Z,99.90
2023-05-10T09:14:21.426Z,99.90
2023-05-10T09:16:48.795Z,99.90
2023-05-10T09:19:16.240Z,99.90
2023-05-10T09:21:43.181Z,99.90
2023-05-10T09:24:10.131Z,99.90
2023-05-10T09:26:46.659Z,99.90
2023-05-10T09:29:15.970Z,99.90
2023-05-10T09:31:51.865Z,99.90
2023-05-10T09:34:21.492Z,99.90
2023-05-10T09:36:57.287Z,99.90
2023-05-10T09:39:37.576Z,99.90
2023-05-10T09:42:09.954Z,99.90
2023-05-10T09:44:41.859Z,99.90
2023-05-10T09:47:08.769Z,99.90
2023-05-10T09:49:38.744Z,99.90
2023-05-10T09:52:15.999Z,99.90
2023-05-10T09:54:56.973Z,99.90
2023-05-10T09:57:25.854Z,99.90
2023-05-10T09:59:56.050Z,99.90
2023-05-10T10:02:30.563Z,99.90
2023-05-10T10:05:04.252Z,99.90
2023-05-10T10:07:35.377Z,99.90
2023-05-10T10:10:02.414Z,99.90
2023-05-10T10:12:29.313Z,99.90
2023-05-10T10:14:57.086Z,99.90
2023-05-10T10:17:28.673Z,99.90
2023-05-10T10:19:58.030Z,99.90
2023-05-10T10:22:25.098Z,99.90
2023-05-10T10:24:52.651Z,99.90
2023-05-10T10:27:39.067Z,99.90
2023-05-10T10:30:14.795Z,99.90
2023-05-10T10:33:41.827Z,99.90
2023-05-10T10:36:09.238Z,99.90
2023-05-10T10:38:48.221Z,99.90
2023-05-10T10:41:36.641Z,99.90
2023-05-10T10:44:37.905Z,99.90
2023-05-10T10:47:15.368Z,99.90
2023-05-10T10:49:42.468Z,99.90
2023-05-10T10:52:44.330Z,99.90
2023-05-10T10:55:25.974Z,99.90
2023-05-10T10:58:01.752Z,99.90
2023-05-10T11:00:31.961Z,99.90
2023-05-10T11:03:18.024Z,99.90
2023-05-10T11:05:49.900Z,99.90
2023-05-10T11:08:22.774Z,99.90
2023-05-10T11:11:01.946Z,99.90
2023-05-10T11:13:33.810Z,99.90
2023-05-10T11:16:20.987Z,99.90
2023-05-10T11:19:11.009Z,99.90
2023-05-10T11:22:07.297Z,99.90
2023-05-10T11:24:34.775Z,99.90
2023-05-10T11:27:02.042Z,99.90
2023-05-10T11:29:29.029Z,99.90
2023-05-10T11:31:59.693Z,99.90
2023-05-10T11:34:34.445Z,99.90
2023-05-10T11:37:01.871Z,99.90
2023-05-10T11:39:31.226Z,99.90
2023-05-10T11:41:59.297Z,99.90
2023-05-10T11:44:33.545Z,99.90
2023-05-10T11:47:04.018Z,99.90
2023-05-10T11:49:31.133Z,99.90
2023-05-10T11:52:08.856Z,99.90
2023-05-10T11:54:36.084Z,99.90
2023-05-10T11:57:03.660Z,99.90
2023-05-10T11:59:30.896Z,99.90
2023-05-10T12:01:57.933Z,99.90
2023-05-10T12:04:25.448Z,99.90
2023-05-10T12:06:52.542Z,99.90
2023-05-10T12:09:31.562Z,99.90
2023-05-10T12:12:06.842Z,99.90
2023-05-10T12:14:36.331Z,99.90
2023-05-10T12:17:03.345Z,99.90
2023-05-10T12:19:41.953Z,99.90
2023-05-10T12:22:08.848Z,99.90
2023-05-10T12:24:38.943Z,99.90
2023-05-10T12:27:09.131Z,99.90
2023-05-10T12:29:36.158Z,99.90
2023-05-10T12:32:03.549Z,99.90
2023-05-10T12:34:37.053Z,99.90
2023-05-10T12:37:04.515Z,99.90
2023-05-10T12:39:45.703Z,99.90
2023-05-10T12:42:13.044Z,99.90
2023-05-10T12:44:40.852Z,99.90
2023-05-10T12:47:07.937Z,99.90
2023-05-10T12:49:35.091Z,99.90
2023-05-10T12:52:02.447Z,99.90
2023-05-10T12:54:29.300Z,99.90
2023-05-10T12:56:56.230Z,99.90
2023-05-10T12:59:23.834Z,99.90
2023-05-10T13:01:50.753Z,99.90
2023-05-10T13:04:17.612Z,99.90
2023-05-10T13:06:44.502Z,99.90
2023-05-10T13:09:11.428Z,99.80
2023-05-10T13:11:38.462Z,99.60
2023-05-10T13:14:05.609Z,99.40
2023-05-10T13:16:32.896Z,99.50
2023-05-10T13:18:59.898Z,99.60
2023-05-10T13:21:26.874Z,99.00
2023-05-10T13:23:54.380Z,99.10
2023-05-10T13:26:21.288Z,99.70
2023-05-10T13:28:49.720Z,99.40
2023-05-10T13:31:16.718Z,99.30
2023-05-10T13:33:43.589Z,98.90
2023-05-10T13:36:10.416Z,99.10
2023-05-10T13:38:37.387Z,99.40
2023-05-10T13:41:04.605Z,99.30
2023-05-10T13:43:31.384Z,99.60
2023-05-10T13:45:58.764Z,99.10
2023-05-10T13:48:25.561Z,99.50
2023-05-10T13:50:52.352Z,99.10
2023-05-10T13:53:19.394Z,99.10
2023-05-10T13:55:46.263Z,98.60
2023-05-10T13:58:13.044Z,98.10
2023-05-10T14:00:39.868Z,98.20
2023-05-10T14:03:07.856Z,98.00
2023-05-10T14:05:34.712Z,98.20
2023-05-10T14:08:01.620Z,98.00
2023-05-10T14:10:28.438Z,98.40
2023-05-10T14:12:55.262Z,98.80
2023-05-10T14:15:22.169Z,98.70
2023-05-10T14:17:49.090Z,99.10
2023-05-10T14:20:16.073Z,98.60
2023-05-10T14:22:42.876Z,97.90
2023-05-10T14:25:10.065Z,97.90
2023-05-10T14:27:36.866Z,98.30
2023-05-10T14:30:04.123Z,98.40
2023-05-10T14:32:32.982Z,97.40
2023-05-10T14:35:00.571Z,96.90
2023-05-10T14:37:27.784Z,96.90
2023-05-10T14:39:55.077Z,97.20
2023-05-10T14:42:22.267Z,97.60
2023-05-10T14:44:49.588Z,97.50
2023-05-10T14:47:16.614Z,97.20
2023-05-10T14:49:43.391Z,96.70
2023-05-10T14:52:10.271Z,96.70
2023-05-10T14:54:37.225Z,96.80
2023-05-10T14:57:04.080Z,96.50
2023-05-10T14:59:30.988Z,96.50
2023-05-10T15:01:58.397Z,96.50
2023-05-10T15:04:27.777Z,96.40
2023-05-10T15:07:00.037Z,96.90
2023-05-10T15:09:28.474Z,96.90
2023-05-10T15:11:56.281Z,96.30
2023-05-10T15:14:24.093Z,95.70
2023-05-10T15:16:50.937Z,96.10
2023-05-10T15:19:17.836Z,95.90
2023-05-10T15:21:45.611Z,96.00
2023-05-10T15:24:12.572Z,95.80
2023-05-10T15:26:39.517Z,95.80
2023-05-10T15:29:06.362Z,96.10
2023-05-10T15:31:36.197Z,96.20
2023-05-10T15:34:03.274Z,96.10
2023-05-10T15:36:30.237Z,96.00
2023-05-10T15:38:57.106Z,96.00
2023-05-10T15:41:24.596Z,96.40
2023-05-10T15:43:51.505Z,96.40
2023-05-10T15:46:18.336Z,96.40
2023-05-10T15:48:45.206Z,95.80
2023-05-10T15:51:12.454Z,96.50
2023-05-10T15:53:46.595Z,96.60
2023-05-10T15:56:19.919Z,96.80
2023-05-10T15:58:46.894Z,96.90
2023-05-10T16:01:13.907Z,97.20
2023-05-10T16:03:40.779Z,97.70
2023-05-10T16:06:08.014Z,98.00
2023-05-10T16:08:35.376Z,98.00
2023-05-10T16:11:02.647Z,98.10
2023-05-10T16:13:29.996Z,98.60
2023-05-10T16:15:58.180Z,98.30
2023-05-10T16:18:25.306Z,98.40
2023-05-10T16:20:53.827Z,98.50
2023-05-10T16:23:20.907Z,98.70
2023-05-10T16:25:47.786Z,99.00
2023-05-10T16:28:14.807Z,99.00
2023-05-10T16:30:41.731Z,98.50
2023-05-10T16:33:09.070Z,98.60
2023-05-10T16:35:35.957Z,98.70
2023-05-10T16:38:03.120Z,98.70
2023-05-10T16:40:30.034Z,98.80
2023-05-10T16:42:57.989Z,99.00
2023-05-10T16:45:25.798Z,98.90
2023-05-10T16:47:53.806Z,98.80
2023-05-10T16:50:20.893Z,98.80
2023-05-10T16:52:47.797Z,98.90
2023-05-10T16:55:14.869Z,98.90
2023-05-10T16:57:41.816Z,99.00
2023-05-10T17:00:11.835Z,99.40
2023-05-10T17:02:39.247Z,99.20
2023-05-10T17:05:06.572Z,99.40
2023-05-10T17:07:33.475Z,99.60
2023-05-10T17:10:00.722Z,99.70
2023-05-10T17:12:27.717Z,99.70
2023-05-10T17:14:54.768Z,99.70
2023-05-10T17:17:21.929Z,99.80
2023-05-10T17:19:48.770Z,99.80
2023-05-10T17:22:15.751Z,99.70
2023-05-10T17:24:43.199Z,99.60
2023-05-10T17:27:10.053Z,99.50
2023-05-10T17:29:37.294Z,99.40
2023-05-10T17:32:04.319Z,99.50
2023-05-10T17:34:31.345Z,99.50
2023-05-10T17:36:58.156Z,99.40
2023-05-10T17:39:24.978Z,99.60
2023-05-10T17:41:51.868Z,99.90
2023-05-10T17:44:18.925Z,99.60
2023-05-10T17:46:45.758Z,99.70
2023-05-10T17:49:12.546Z,99.50
2023-05-10T17:51:41.332Z,99.50
2023-05-10T17:54:08.217Z,99.50
2023-05-10T17:56:35.037Z,99.50
2023-05-10T17:59:03.110Z,99.70
2023-05-10T18:01:29.983Z,99.90
2023-05-10T18:03:56.860Z,99.90
2023-05-10T18:06:23.814Z,99.80
2023-05-10T18:08:50.675Z,99.80
2023-05-10T18:11:17.607Z,99.90
2023-05-10T18:13:44.366Z,99.90
2023-05-10T18:16:13.290Z,99.90
2023-05-10T18:18:40.193Z,99.90
2023-05-10T18:21:07.021Z,99.90
2023-05-10T18:23:33.980Z,99.90
2023-05-10T18:26:01.703Z,99.90
2023-05-10T18:28:28.795Z,99.90
2023-05-10T18:30:55.609Z,99.90
2023-05-10T18:33:22.530Z,99.90
2023-05-10T18:35:49.371Z,99.90
2023-05-10T18:38:16.246Z,99.90
2023-05-10T18:40:43.056Z,99.90
2023-05-10T18:43:09.861Z,99.90
2023-05-10T18:45:36.875Z,99.90
2023-05-10T18:48:03.763Z,99.90
2023-05-10T18:50:30.693Z,99.90
2023-05-10T18:52:57.435Z,99.90
2023-05-10T18:55:25.865Z,99.90
2023-05-10T18:57:52.975Z,99.90
2023-05-10T19:00:20.526Z,99.90
2023-05-10T19:02:47.835Z,99.90
2023-05-10T19:05:15.891Z,99.90
2023-05-10T19:07:44.004Z,99.90
2023-05-10T19:10:13.149Z,99.90
2023-05-10T19:12:41.811Z,99.90
2023-05-10T19:15:10.459Z,99.90
2023-05-10T19:17:40.100Z,99.90
2023-05-10T19:20:09.018Z,99.90
2023-05-10T19:22:47.206Z,99.90
2023-05-10T19:25:29.034Z,99.90
2023-05-10T19:27:59.670Z,99.90
2023-05-10T19:30:26.680Z,99.90
2023-05-10T19:32:53.615Z,99.90
2023-05-10T19:35:20.953Z,99.90
2023-05-10T19:37:47.886Z,99.90
2023-05-10T19:40:18.501Z,99.90
2023-05-10T19:42:45.436Z,99.90
2023-05-10T19:45:12.438Z,99.90
2023-05-10T19:47:39.433Z,99.90
2023-05-10T19:50:07.400Z,99.90
2023-05-10T19:52:34.357Z,99.90
2023-05-10T19:55:01.189Z,99.90
2023-05-10T19:57:28.159Z,99.90
2023-05-10T19:59:54.939Z,99.90
2023-05-10T20:02:21.793Z,99.90
2023-05-10T20:04:48.742Z,99.90
2023-05-10T20:07:15.580Z,99.90
2023-05-10T20:09:43.857Z,99.90
2023-05-10T20:12:11.000Z,99.90
2023-05-10T20:14:38.052Z,99.90
2023-05-10T20:17:05.565Z,99.90
2023-05-10T20:19:32.370Z,99.90
2023-05-10T20:21:59.174Z,99.90
2023-05-10T20:24:26.067Z,99.90
2023-05-10T20:26:52.800Z,99.90
2023-05-10T20:29:19.768Z,99.90
2023-05-10T20:31:46.635Z,99.90
2023-05-10T20:34:13.861Z,99.90
2023-05-10T20:36:40.653Z,99.90
2023-05-10T20:39:07.701Z,99.90
2023-05-10T20:41:34.454Z,99.90
2023-05-10T20:44:01.360Z,99.90
2023-05-10T20:46:28.258Z,99.90
2023-05-10T20:48:55.063Z,99.90
2023-05-10T20:51:21.833Z,99.90
2023-05-10T20:53:48.999Z,99.90
2023-05-10T20:56:16.200Z,99.90
2023-05-10T20:58:42.983Z,99.90
2023-05-10T21:01:10.087Z,99.90
2023-05-10T21:03:36.931Z,99.90
2023-05-10T21:06:03.898Z,99.90
2023-05-10T21:08:30.724Z,99.90
2023-05-10T21:10:57.524Z,99.90
2023-05-10T21:13:24.360Z,99.90
2023-05-10T21:15:51.244Z,99.90
2023-05-10T21:18:18.080Z,99.90
2023-05-10T21:20:45.025Z,99.90
2023-05-10T21:23:12.090Z,99.90
2023-05-10T21:25:38.940Z,99.90
2023-05-10T21:28:05.791Z,99.90
2023-05-10T21:30:33.809Z,99.90
2023-05-10T21:33:02.504Z,99.90
2023-05-10T21:35:30.342Z,99.90
2023-05-10T21:37:57.635Z,99.90
2023-05-10T21:40:24.427Z,99.90
2023-05-10T21:42:51.400Z,99.90
2023-05-10T21:45:21.053Z,99.90
2023-05-10T21:47:47.894Z,99.90
2023-05-10T21:50:15.150Z,99.90
2023-05-10T21:52:42.162Z,99.90
2023-05-10T21:55:10.096Z,99.90
2023-05-10T21:57:36.979Z,99.90
2023-05-10T22:00:04.912Z,99.90
2023-05-10T22:02:31.895Z,99.90
2023-05-10T22:04:58.926Z,99.90
2023-05-10T22:07:25.700Z,99.90
2023-05-10T22:09:52.452Z,99.90
2023-05-10T22:12:19.390Z,99.90
2023-05-10T22:14:47.497Z,99.90
2023-05-10T22:17:16.911Z,99.90
2023-05-10T22:19:44.114Z,99.90
2023-05-10T22:22:11.089Z,99.90
2023-05-10T22:24:39.184Z,99.90
2023-05-10T22:27:06.136Z,99.90
2023-05-10T22:29:32.942Z,99.90
2023-05-10T22:32:05.100Z,99.90
2023-05-10T22:34:33.077Z,99.90
2023-05-10T22:36:59.863Z,99.90
2023-05-10T22:39:26.841Z,99.90
2023-05-10T22:41:53.607Z,99.90
2023-05-10T22:44:20.801Z,99.90
2023-05-10T22:46:48.042Z,99.90
2023-05-10T22:49:14.851Z,99.90
2023-05-10T22:51:41.975Z,99.90
2023-05-10T22:54:08.770Z,99.90
2023-05-10T22:56:35.559Z,99.90
2023-05-10T22:59:02.372Z,99.90
2023-05-10T23:01:29.657Z,99.90
2023-05-10T23:03:56.719Z,99.90
2023-05-10T23:06:23.487Z,99.90
2023-05-10T23:08:50.337Z,99.90
2023-05-10T23:11:17.116Z,99.90
2023-05-10T23:13:43.843Z,99.90
2023-05-10T23:16:10.708Z,99.90
2023-05-10T23:18:37.602Z,99.90
2023-05-10T23:21:04.564Z,99.90
2023-05-10T23:23:32.780Z,99.90
2023-05-10T23:26:00.475Z,99.90
2023-05-10T23:28:27.351Z,99.90
2023-05-10T23:30:58.530Z,99.90
2023-05-10T23:33:26.850Z,99.90
2023-05-10T23:35:55.045Z,99.90
2023-05-10T23:38:22.099Z,99.90
2023-05-10T23:40:50.162Z,99.90
2023-05-10T23:43:19.748Z,99.90
2023-05-10T23:45:57.426Z,99.90
2023-05-10T23:48:25.248Z,99.90
2023-05-10T23:50:52.107Z,99.90
2023-05-10T23:53:19.082Z,99.90
2023-05-10T23:55:46.013Z,99.90
2023-05-10T23:58:12.778Z,99.90
